Minnehaha, West Virginia
Current Conditions -  °F | °C
As of 7:30 PM on Monday 24 Nov 2014 (Local Time) from KHSP Reporting Station
Clear Clear  
Wind Chill: 56°   Ceiling: Unl
Heat Index: 56°   Visibility: 10mi
Dew Point: 34°   Wind: 20mph
Humidity: 42%   Direction: 240°WSW
Pressure: 29.78"   Gusts: 31mph
Location:  38.2213°N, 80.0565°W
Report Text: KHSP 250030Z AUTO 24017G27KT 10SM CLR 14/01 A2978 RMK AO2 LTG DSNT E T01360009
Loading
Personal Weather Stations






























Interactive Weather Map New forecast layout! Learn more

10-Day Weather Forecast

Advertisements
Track Severe Weather on mobile